createdAt,value
2022-09-18T00:00:11.263Z,96929.63
2022-09-18T00:02:37.889Z,96932.78
2022-09-18T00:05:05.378Z,96932.53
2022-09-18T00:07:31.947Z,96917.84
2022-09-18T00:09:58.493Z,96923.75
2022-09-18T00:12:25.166Z,96918.00
2022-09-18T00:14:53.006Z,96913.94
2022-09-18T00:17:19.675Z,96921.78
2022-09-18T00:19:46.345Z,96921.78
2022-09-18T00:22:12.911Z,96923.84
2022-09-18T00:24:39.562Z,96909.06
2022-09-18T00:27:06.124Z,96928.06
2022-09-18T00:29:32.652Z,96910.53
2022-09-18T00:31:59.968Z,96902.81
2022-09-18T00:34:26.592Z,96916.38
2022-09-18T00:36:53.170Z,96914.72
2022-09-18T00:39:19.701Z,96901.63
2022-09-18T00:41:46.334Z,96899.38
2022-09-18T00:44:37.414Z,96921.63
2022-09-18T00:47:05.626Z,96917.66
2022-09-18T00:49:32.458Z,96905.50
2022-09-18T00:52:00.534Z,96918.53
2022-09-18T00:54:38.368Z,96910.28
2022-09-18T00:57:16.821Z,96922.00
2022-09-18T00:59:45.669Z,96921.72
2022-09-18T01:02:12.641Z,96909.56
2022-09-18T01:04:39.776Z,96921.28
2022-09-18T01:07:29.118Z,96913.78
2022-09-18T01:10:04.272Z,96912.56
2022-09-18T01:12:44.326Z,96920.13
2022-09-18T01:15:13.969Z,96915.56
2022-09-18T01:18:03.701Z,96911.03
2022-09-18T01:20:49.161Z,96910.03
2022-09-18T01:23:34.147Z,96909.13
2022-09-18T01:26:31.597Z,96919.66
2022-09-18T01:29:11.850Z,96914.31
2022-09-18T01:31:46.096Z,96916.75
2022-09-18T01:34:18.737Z,96913.47
2022-09-18T01:36:49.754Z,96916.13
2022-09-18T01:39:22.290Z,96910.41
2022-09-18T01:41:51.523Z,96889.25
2022-09-18T01:44:22.330Z,96891.06
2022-09-18T01:46:50.035Z,96903.19
2022-09-18T01:49:20.918Z,96910.66
2022-09-18T01:51:50.609Z,96900.06
2022-09-18T01:54:20.783Z,96911.56
2022-09-18T01:57:03.163Z,96913.13
2022-09-18T01:59:38.350Z,96911.31
2022-09-18T02:02:08.804Z,96905.41
2022-09-18T02:04:37.618Z,96900.50
2022-09-18T02:07:14.995Z,96898.16
2022-09-18T02:09:42.580Z,96897.34
2022-09-18T02:12:11.965Z,96905.97
2022-09-18T02:14:41.903Z,96914.69
2022-09-18T02:17:24.704Z,96905.97
2022-09-18T02:20:00.442Z,96903.06
2022-09-18T02:22:30.596Z,96906.31
2022-09-18T02:24:59.775Z,96901.25
2022-09-18T02:27:26.463Z,96912.50
2022-09-18T02:29:54.127Z,96900.72
2022-09-18T02:32:20.781Z,96905.00
2022-09-18T02:34:47.657Z,96896.91
2022-09-18T02:37:37.561Z,96896.72
2022-09-18T02:40:28.366Z,96894.38
2022-09-18T02:43:09.285Z,96887.75
2022-09-18T02:45:58.503Z,96896.72
2022-09-18T02:48:48.019Z,96886.94
2022-09-18T02:51:17.703Z,96884.13
2022-09-18T02:53:59.353Z,96889.03
2022-09-18T02:56:37.530Z,96885.63
2022-09-18T02:59:17.490Z,96880.00
2022-09-18T03:01:45.400Z,96886.56
2022-09-18T03:04:15.645Z,96875.69
2022-09-18T03:06:42.252Z,96874.88
2022-09-18T03:09:08.813Z,96890.06
2022-09-18T03:11:35.446Z,96884.06
2022-09-18T03:14:02.002Z,96882.81
2022-09-18T03:16:28.612Z,96869.00
2022-09-18T03:18:55.253Z,96868.16
2022-09-18T03:21:21.879Z,96869.97
2022-09-18T03:23:48.458Z,96870.97
2022-09-18T03:26:15.020Z,96861.16
2022-09-18T03:28:41.678Z,96881.50
2022-09-18T03:31:08.407Z,96880.00
2022-09-18T03:33:35.028Z,96870.66
2022-09-18T03:36:02.289Z,96874.28
2022-09-18T03:38:29.029Z,96867.00
2022-09-18T03:40:55.582Z,96867.06
2022-09-18T03:43:22.179Z,96869.97
2022-09-18T03:45:49.007Z,96872.94
2022-09-18T03:48:15.580Z,96874.72
2022-09-18T03:50:42.165Z,96852.28
2022-09-18T03:53:08.839Z,96876.34
2022-09-18T03:55:36.192Z,96863.75
2022-09-18T03:58:02.793Z,96858.94
2022-09-18T04:00:29.498Z,96862.44
2022-09-18T04:02:56.197Z,96861.78
2022-09-18T04:05:22.945Z,96862.75
2022-09-18T04:07:49.590Z,96871.16
2022-09-18T04:10:16.487Z,96861.38
2022-09-18T04:12:47.818Z,96870.91
2022-09-18T04:15:16.804Z,96869.53
2022-09-18T04:17:43.534Z,96864.19
2022-09-18T04:20:10.191Z,96852.56
2022-09-18T04:22:37.075Z,96853.50
2022-09-18T04:25:04.598Z,96856.31
2022-09-18T04:27:31.258Z,96852.72
2022-09-18T04:29:57.809Z,96864.84
2022-09-18T04:32:24.468Z,96858.94
2022-09-18T04:34:51.034Z,96864.19
2022-09-18T04:37:17.690Z,96854.03
2022-09-18T04:39:44.435Z,96860.56
2022-09-18T04:42:10.985Z,96861.75
2022-09-18T04:44:37.564Z,96856.81
2022-09-18T04:47:04.291Z,96846.97
2022-09-18T04:49:30.929Z,96855.19
2022-09-18T04:51:57.513Z,96852.91
2022-09-18T04:54:24.093Z,96835.22
2022-09-18T04:56:50.718Z,96850.47
2022-09-18T04:59:17.305Z,96844.56
2022-09-18T05:01:43.978Z,96847.81
2022-09-18T05:04:11.010Z,96837.22
2022-09-18T05:06:37.692Z,96840.75
2022-09-18T05:09:04.284Z,96839.22
2022-09-18T05:11:30.910Z,96847.28
2022-09-18T05:13:58.194Z,96849.19
2022-09-18T05:16:25.065Z,96851.44
2022-09-18T05:18:52.466Z,96856.81
2022-09-18T05:21:19.669Z,96861.44
2022-09-18T05:23:47.048Z,96857.34
2022-09-18T05:26:14.306Z,96873.41
2022-09-18T05:28:41.184Z,96855.38
2022-09-18T05:31:08.534Z,96872.78
2022-09-18T05:33:36.321Z,96873.59
2022-09-18T05:36:05.664Z,96862.25
2022-09-18T05:38:32.443Z,96879.56
2022-09-18T05:41:02.844Z,96876.06
2022-09-18T05:43:30.362Z,96868.53
2022-09-18T05:45:57.286Z,96871.16
2022-09-18T05:48:24.251Z,96869.84
2022-09-18T05:50:52.128Z,96871.97
2022-09-18T05:53:21.115Z,96869.50
2022-09-18T05:55:48.072Z,96882.50
2022-09-18T05:58:16.986Z,96871.97
2022-09-18T06:00:46.940Z,96876.22
2022-09-18T06:03:15.618Z,96878.94
2022-09-18T06:05:43.158Z,96873.41
2022-09-18T06:08:11.546Z,96879.88
2022-09-18T06:10:39.558Z,96884.81
2022-09-18T06:13:13.147Z,96881.66
2022-09-18T06:15:39.838Z,96890.97
2022-09-18T06:18:08.755Z,96877.19
2022-09-18T06:20:35.537Z,96887.34
2022-09-18T06:23:02.827Z,96905.19
2022-09-18T06:25:30.195Z,96888.22
2022-09-18T06:27:58.880Z,96893.69
2022-09-18T06:30:31.132Z,96903.66
2022-09-18T06:33:02.497Z,96902.19
2022-09-18T06:35:29.096Z,96910.56
2022-09-18T06:37:55.752Z,96898.75
2022-09-18T06:40:22.469Z,96911.28
2022-09-18T06:42:49.127Z,96890.16
2022-09-18T06:45:15.758Z,96893.50
2022-09-18T06:47:42.350Z,96889.59
2022-09-18T06:50:09.209Z,96892.22
2022-09-18T06:52:36.060Z,96882.44
2022-09-18T06:55:02.695Z,96891.41
2022-09-18T06:57:29.418Z,96885.16
2022-09-18T06:59:56.013Z,96885.41
2022-09-18T07:02:22.768Z,96881.34
2022-09-18T07:04:49.607Z,96888.84
2022-09-18T07:07:16.284Z,96893.78
2022-09-18T07:09:42.960Z,96891.16
2022-09-18T07:12:09.514Z,96897.69
2022-09-18T07:14:36.040Z,96887.66
2022-09-18T07:17:03.311Z,96894.75
2022-09-18T07:19:29.908Z,96875.50
2022-09-18T07:21:56.508Z,96873.69
2022-09-18T07:24:23.106Z,96886.75
2022-09-18T07:26:49.776Z,96892.38
2022-09-18T07:29:16.355Z,96883.13
2022-09-18T07:31:43.000Z,96892.91
2022-09-18T07:34:11.624Z,96888.88
2022-09-18T07:36:38.312Z,96872.66
2022-09-18T07:39:05.254Z,96870.63
2022-09-18T07:41:31.856Z,96878.06
2022-09-18T07:43:58.434Z,96873.69
2022-09-18T07:46:25.127Z,96878.38
2022-09-18T07:48:51.836Z,96881.25
2022-09-18T07:51:22.961Z,96886.16
2022-09-18T07:53:52.175Z,96878.88
2022-09-18T07:56:18.812Z,96886.91
2022-09-18T07:58:45.332Z,96885.00
2022-09-18T08:01:11.930Z,96882.50
2022-09-18T08:03:41.359Z,96893.22
2022-09-18T08:06:08.485Z,96868.75
2022-09-18T08:08:36.288Z,96878.91
2022-09-18T08:11:03.356Z,96868.78
2022-09-18T08:13:30.017Z,96865.16
2022-09-18T08:15:57.993Z,96874.56
2022-09-18T08:18:24.650Z,96871.78
2022-09-18T08:20:51.347Z,96873.81
2022-09-18T08:23:17.901Z,96873.88
2022-09-18T08:25:44.544Z,96870.06
2022-09-18T08:28:11.196Z,96869.78
2022-09-18T08:30:38.268Z,96873.66
2022-09-18T08:33:07.132Z,96877.47
2022-09-18T08:35:34.213Z,96874.81
2022-09-18T08:38:01.900Z,96878.66
2022-09-18T08:40:43.850Z,96878.31
2022-09-18T08:43:16.165Z,96868.97
2022-09-18T08:46:05.467Z,96867.44
2022-09-18T08:48:35.884Z,96861.34
2022-09-18T08:51:40.334Z,96867.66
2022-09-18T08:54:19.691Z,96860.56
2022-09-18T08:56:46.894Z,96866.25
2022-09-18T08:59:44.824Z,96873.63
2022-09-18T09:02:24.893Z,96866.41
2022-09-18T09:04:53.484Z,96879.47
2022-09-18T09:07:43.205Z,96877.25
2022-09-18T09:10:28.386Z,96873.44
2022-09-18T09:13:27.456Z,96882.75
2022-09-18T09:16:05.509Z,96871.00
2022-09-18T09:18:37.209Z,96873.91
2022-09-18T09:21:22.189Z,96884.53
2022-09-18T09:24:28.611Z,96875.59
2022-09-18T09:26:56.796Z,96868.28
2022-09-18T09:29:29.146Z,96866.84
2022-09-18T09:32:06.276Z,96854.78
2022-09-18T09:34:52.589Z,96867.63
2022-09-18T09:37:24.063Z,96868.81
2022-09-18T09:40:00.209Z,96865.34
2022-09-18T09:43:03.043Z,96855.75
2022-09-18T09:45:46.123Z,96867.56
2022-09-18T09:48:23.219Z,96857.56
2022-09-18T09:51:08.337Z,96858.75
2022-09-18T09:53:35.202Z,96862.78
2022-09-18T09:56:25.278Z,96847.44
2022-09-18T09:59:29.554Z,96850.78
2022-09-18T10:02:11.392Z,96836.13
2022-09-18T10:05:10.329Z,96841.34
2022-09-18T10:07:42.197Z,96840.50
2022-09-18T10:10:23.970Z,96843.63
2022-09-18T10:12:52.975Z,96844.66
2022-09-18T10:15:41.743Z,96841.81
2022-09-18T10:18:16.438Z,96820.41
2022-09-18T10:20:44.500Z,96829.44
2022-09-18T10:23:23.959Z,96823.34
2022-09-18T10:25:55.631Z,96814.78
2022-09-18T10:28:25.651Z,96814.59
2022-09-18T10:31:12.703Z,96795.31
2022-09-18T10:33:45.120Z,96790.78
2022-09-18T10:36:28.808Z,96805.25
2022-09-18T10:38:55.423Z,96798.03
2022-09-18T10:41:28.761Z,96792.31
2022-09-18T10:44:04.099Z,96804.94
2022-09-18T10:46:33.178Z,96839.75
2022-09-18T10:49:04.976Z,96840.59
2022-09-18T10:51:31.638Z,96837.75
2022-09-18T10:54:14.407Z,96854.81
2022-09-18T10:56:41.047Z,96851.19
2022-09-18T10:59:29.022Z,96850.75
2022-09-18T11:02:01.731Z,96852.81
2022-09-18T11:04:29.110Z,96845.03
2022-09-18T11:06:56.254Z,96847.84
2022-09-18T11:09:37.534Z,96841.66
2022-09-18T11:12:04.353Z,96855.56
2022-09-18T11:14:58.934Z,96858.63
2022-09-18T11:17:31.195Z,96857.63
2022-09-18T11:19:59.642Z,96835.00
2022-09-18T11:22:44.361Z,96825.84
2022-09-18T11:25:13.893Z,96825.81
2022-09-18T11:27:50.605Z,96835.78
2022-09-18T11:30:21.777Z,96830.50
2022-09-18T11:32:50.732Z,96842.88
2022-09-18T11:35:19.217Z,96840.88
2022-09-18T11:37:53.132Z,96843.47
2022-09-18T11:40:32.873Z,96839.75
2022-09-18T11:43:02.956Z,96847.66
2022-09-18T11:45:41.403Z,96838.66
2022-09-18T11:48:12.209Z,96841.34
2022-09-18T11:50:39.223Z,96839.59
2022-09-18T11:53:12.792Z,96843.84
2022-09-18T11:55:54.950Z,96831.44
2022-09-18T11:58:31.264Z,96828.38
2022-09-18T12:01:38.387Z,96828.44
2022-09-18T12:04:11.050Z,96828.50
2022-09-18T12:06:56.539Z,96827.50
2022-09-18T12:09:56.722Z,96826.97
2022-09-18T12:12:43.570Z,96828.31
2022-09-18T12:15:20.023Z,96814.53
2022-09-18T12:17:56.634Z,96817.16
2022-09-18T12:20:34.507Z,96810.19
2022-09-18T12:23:01.577Z,96813.13
2022-09-18T12:25:37.200Z,96809.59
2022-09-18T12:28:31.882Z,96815.75
2022-09-18T12:31:13.076Z,96807.28
2022-09-18T12:34:24.247Z,96817.28
2022-09-18T12:37:00.104Z,96809.88
2022-09-18T12:39:40.499Z,96799.53
2022-09-18T12:42:14.478Z,96808.28
2022-09-18T12:45:10.308Z,96801.34
2022-09-18T12:47:49.937Z,96809.13
2022-09-18T12:50:55.056Z,96813.22
2022-09-18T12:53:41.423Z,96811.41
2022-09-18T12:56:14.083Z,96812.84
2022-09-18T12:58:43.606Z,96803.53
2022-09-18T13:01:27.479Z,96805.59
2022-09-18T13:03:56.608Z,96790.50
2022-09-18T13:06:35.691Z,96786.31
2022-09-18T13:09:10.268Z,96786.84
2022-09-18T13:11:41.331Z,96791.50
2022-09-18T13:14:40.604Z,96792.75
2022-09-18T13:17:17.162Z,96786.44
2022-09-18T13:19:51.092Z,96784.66
2022-09-18T13:22:18.903Z,96775.34
2022-09-18T13:24:46.937Z,96772.28
2022-09-18T13:27:15.928Z,96761.72
2022-09-18T13:29:51.653Z,96778.81
2022-09-18T13:32:35.226Z,96770.09
2022-09-18T13:35:06.415Z,96775.22
2022-09-18T13:37:33.038Z,96766.97
2022-09-18T13:40:10.265Z,96777.25
2022-09-18T13:42:42.270Z,96772.38
2022-09-18T13:45:17.809Z,96784.09
2022-09-18T13:48:12.319Z,96790.81
2022-09-18T13:50:49.301Z,96785.47
2022-09-18T13:53:31.725Z,96776.16
2022-09-18T13:55:58.248Z,96773.22
2022-09-18T13:58:30.880Z,96775.50
2022-09-18T14:01:02.967Z,96775.19
2022-09-18T14:03:37.179Z,96781.44
2022-09-18T14:06:34.862Z,96781.25
2022-09-18T14:09:03.136Z,96780.00
2022-09-18T14:11:29.829Z,96800.88
2022-09-18T14:13:57.783Z,96793.28
2022-09-18T14:16:28.476Z,96804.19
2022-09-18T14:18:58.076Z,96798.66
2022-09-18T14:21:28.784Z,96796.03
2022-09-18T14:24:06.608Z,96813.00
2022-09-18T14:26:37.544Z,96816.97
2022-09-18T14:29:14.800Z,96806.38
2022-09-18T14:31:41.314Z,96796.59
2022-09-18T14:34:32.794Z,96792.59
2022-09-18T14:37:02.051Z,96786.72
2022-09-18T14:39:31.018Z,96782.06
2022-09-18T14:42:04.655Z,96780.44
2022-09-18T14:44:32.675Z,96784.25
2022-09-18T14:47:02.970Z,96781.19
2022-09-18T14:49:34.787Z,96785.50
2022-09-18T14:52:04.644Z,96786.31
2022-09-18T14:54:31.636Z,96771.72
2022-09-18T14:57:01.450Z,96786.13
2022-09-18T14:59:29.220Z,96776.59
2022-09-18T15:02:23.296Z,96779.72
2022-09-18T15:04:50.118Z,96777.59
2022-09-18T15:07:18.671Z,96770.53
2022-09-18T15:09:48.960Z,96782.25
2022-09-18T15:12:18.538Z,96784.69
2022-09-18T15:14:47.650Z,96792.69
2022-09-18T15:17:23.143Z,96793.41
2022-09-18T15:20:01.159Z,96799.66
2022-09-18T15:22:29.115Z,96799.03
2022-09-18T15:24:58.615Z,96805.19
2022-09-18T15:27:25.220Z,96798.50
2022-09-18T15:30:22.150Z,96809.00
2022-09-18T15:33:00.884Z,96803.66
2022-09-18T15:35:35.398Z,96803.66
2022-09-18T15:38:05.934Z,96804.16
2022-09-18T15:40:35.460Z,96799.28
2022-09-18T15:43:04.514Z,96803.09
2022-09-18T15:45:33.533Z,96805.53
2022-09-18T15:48:02.621Z,96813.41
2022-09-18T15:50:35.859Z,96802.00
2022-09-18T15:53:14.044Z,96813.41
2022-09-18T15:55:56.822Z,96808.53
2022-09-18T15:58:29.298Z,96809.97
2022-09-18T16:00:58.285Z,96809.97
2022-09-18T16:03:28.076Z,96813.41
2022-09-18T16:05:56.730Z,96811.78
2022-09-18T16:08:27.298Z,96810.88
2022-09-18T16:10:53.958Z,96809.56
2022-09-18T16:13:20.458Z,96807.94
2022-09-18T16:15:47.809Z,96814.84
2022-09-18T16:18:29.161Z,96804.03
2022-09-18T16:20:57.599Z,96809.66
2022-09-18T16:23:31.455Z,96809.19
2022-09-18T16:26:10.701Z,96809.84
2022-09-18T16:28:52.270Z,96809.38
2022-09-18T16:31:21.536Z,96805.44
2022-09-18T16:34:01.302Z,96805.06
2022-09-18T16:36:36.206Z,96802.31
2022-09-18T16:39:07.792Z,96812.81
2022-09-18T16:41:35.099Z,96811.19
2022-09-18T16:44:02.422Z,96813.53
2022-09-18T16:46:33.637Z,96812.91
2022-09-18T16:49:00.564Z,96808.34
2022-09-18T16:51:27.076Z,96816.44
2022-09-18T16:53:53.615Z,96819.44
2022-09-18T16:56:28.184Z,96819.78
2022-09-18T16:58:56.561Z,96823.69
2022-09-18T17:01:23.289Z,96825.84
2022-09-18T17:03:50.684Z,96821.41
2022-09-18T17:06:18.997Z,96829.47
2022-09-18T17:08:46.873Z,96832.28
2022-09-18T17:11:13.671Z,96837.88
2022-09-18T17:13:40.261Z,96843.59
2022-09-18T17:16:06.938Z,96852.53
2022-09-18T17:18:34.788Z,96844.75
2022-09-18T17:21:02.977Z,96850.84
2022-09-18T17:23:30.670Z,96845.09
2022-09-18T17:26:05.506Z,96837.28
2022-09-18T17:28:32.073Z,96851.34
2022-09-18T17:30:58.620Z,96846.44
2022-09-18T17:33:25.178Z,96853.66
2022-09-18T17:35:51.734Z,96867.25
2022-09-18T17:38:18.279Z,96861.88
2022-09-18T17:40:55.755Z,96858.91
2022-09-18T17:43:25.086Z,96862.03
2022-09-18T17:45:56.240Z,96866.16
2022-09-18T17:48:22.995Z,96860.06
2022-09-18T17:50:56.546Z,96856.50
2022-09-18T17:53:23.132Z,96850.44
2022-09-18T17:55:51.075Z,96852.41
2022-09-18T17:58:18.464Z,96852.25
2022-09-18T18:00:45.425Z,96839.66
2022-09-18T18:03:12.151Z,96836.38
2022-09-18T18:05:38.830Z,96838.84
2022-09-18T18:08:05.711Z,96826.38
2022-09-18T18:10:32.316Z,96826.03
2022-09-18T18:12:58.968Z,96821.94
2022-09-18T18:15:25.491Z,96804.56
2022-09-18T18:17:53.423Z,96801.94
2022-09-18T18:20:19.975Z,96803.13
2022-09-18T18:22:47.280Z,96801.66
2022-09-18T18:25:13.866Z,96788.03
2022-09-18T18:27:40.403Z,96805.56
2022-09-18T18:30:08.837Z,96799.84
2022-09-18T18:32:35.567Z,96803.47
2022-09-18T18:35:02.117Z,96801.34
2022-09-18T18:37:28.792Z,96801.34
2022-09-18T18:39:55.420Z,96793.66
2022-09-18T18:42:22.022Z,96808.56
2022-09-18T18:44:48.523Z,96811.19
2022-09-18T18:47:17.575Z,96814.63
2022-09-18T18:49:44.106Z,96826.28
2022-09-18T18:52:11.417Z,96821.03
2022-09-18T18:54:38.212Z,96833.81
2022-09-18T18:57:09.160Z,96837.91
2022-09-18T18:59:36.220Z,96844.75
2022-09-18T19:02:03.364Z,96850.19
2022-09-18T19:04:29.983Z,96845.78
2022-09-18T19:06:56.656Z,96843.78
2022-09-18T19:09:24.536Z,96847.56
2022-09-18T19:11:52.833Z,96843.16
2022-09-18T19:14:22.156Z,96859.72
2022-09-18T19:16:51.045Z,96857.72
2022-09-18T19:19:19.772Z,96857.06
2022-09-18T19:21:46.857Z,96866.75
2022-09-18T19:24:13.736Z,96866.72
2022-09-18T19:26:41.726Z,96871.00
2022-09-18T19:29:12.239Z,96878.84
2022-09-18T19:31:40.462Z,96882.13
2022-09-18T19:34:07.479Z,96877.38
2022-09-18T19:36:34.549Z,96886.53
2022-09-18T19:39:04.367Z,96883.44
2022-09-18T19:41:55.321Z,96884.75
2022-09-18T19:44:38.975Z,96886.88
2022-09-18T19:47:31.334Z,96887.53
2022-09-18T19:49:58.947Z,96889.66
2022-09-18T19:52:29.751Z,96894.56
2022-09-18T19:54:57.598Z,96895.72
2022-09-18T19:57:24.627Z,96894.75
2022-09-18T19:59:55.770Z,96884.25
2022-09-18T20:02:22.859Z,96892.44
2022-09-18T20:04:49.531Z,96882.97
2022-09-18T20:07:16.050Z,96887.88
2022-09-18T20:09:42.604Z,96889.47
2022-09-18T20:12:09.872Z,96886.69
2022-09-18T20:14:36.378Z,96883.56
2022-09-18T20:17:03.016Z,96890.13
2022-09-18T20:19:29.722Z,96895.03
2022-09-18T20:21:56.298Z,96898.00
2022-09-18T20:24:22.853Z,96898.16
2022-09-18T20:26:51.166Z,96889.19
2022-09-18T20:29:17.755Z,96891.28
2022-09-18T20:31:45.958Z,96894.41
2022-09-18T20:34:13.032Z,96884.09
2022-09-18T20:36:39.548Z,96880.00
2022-09-18T20:39:06.156Z,96876.56
2022-09-18T20:41:32.740Z,96876.41
2022-09-18T20:44:01.139Z,96881.63
2022-09-18T20:46:27.762Z,96885.09
2022-09-18T20:48:57.149Z,96885.25
2022-09-18T20:51:26.692Z,96887.50
2022-09-18T20:53:58.869Z,96881.59
2022-09-18T20:56:27.610Z,96888.47
2022-09-18T20:58:54.625Z,96890.94
2022-09-18T21:01:24.860Z,96898.28
2022-09-18T21:03:57.243Z,96895.03
2022-09-18T21:06:26.140Z,96904.84
2022-09-18T21:08:54.140Z,96905.81
2022-09-18T21:11:26.592Z,96905.47
2022-09-18T21:13:55.903Z,96901.34
2022-09-18T21:16:25.251Z,96909.22
2022-09-18T21:18:55.600Z,96911.19
2022-09-18T21:21:22.384Z,96897.91
2022-09-18T21:24:00.613Z,96905.78
2022-09-18T21:26:35.913Z,96899.19
2022-09-18T21:29:22.842Z,96904.75
2022-09-18T21:31:51.684Z,96902.41
2022-09-18T21:34:31.032Z,96904.06
2022-09-18T21:36:59.870Z,96908.63
2022-09-18T21:39:28.277Z,96898.97
2022-09-18T21:41:55.918Z,96895.16
2022-09-18T21:44:26.947Z,96900.72
2022-09-18T21:46:54.833Z,96898.91
2022-09-18T21:49:22.761Z,96893.47
2022-09-18T21:51:50.070Z,96891.50
2022-09-18T21:54:21.283Z,96909.56
2022-09-18T21:56:51.721Z,96902.16
2022-09-18T21:59:23.348Z,96905.13
2022-09-18T22:01:52.933Z,96910.19
2022-09-18T22:04:24.132Z,96912.81
2022-09-18T22:06:50.728Z,96918.91
2022-09-18T22:09:26.577Z,96916.63
2022-09-18T22:11:53.905Z,96912.34
2022-09-18T22:14:25.939Z,96919.72
2022-09-18T22:16:53.744Z,96927.59
2022-09-18T22:19:20.447Z,96920.72
2022-09-18T22:21:49.190Z,96916.09
2022-09-18T22:24:18.978Z,96931.84
2022-09-18T22:26:50.765Z,96935.28
2022-09-18T22:29:28.973Z,96936.75
2022-09-18T22:31:55.984Z,96938.03
2022-09-18T22:34:24.641Z,96931.31
2022-09-18T22:36:51.176Z,96929.88
2022-09-18T22:39:19.497Z,96941.47
2022-09-18T22:41:46.674Z,96930.63
2022-09-18T22:44:14.462Z,96927.38
2022-09-18T22:46:43.056Z,96925.56
2022-09-18T22:49:12.744Z,96924.75
2022-09-18T22:51:39.920Z,96933.59
2022-09-18T22:54:09.707Z,96926.53
2022-09-18T22:56:41.442Z,96936.56
2022-09-18T22:59:08.420Z,96941.00
2022-09-18T23:01:42.549Z,96941.28
2022-09-18T23:04:09.848Z,96940.00
2022-09-18T23:06:36.475Z,96939.00
2022-09-18T23:09:04.657Z,96950.16
2022-09-18T23:11:33.200Z,96952.59
2022-09-18T23:14:05.310Z,96949.00
2022-09-18T23:16:33.531Z,96940.47
2022-09-18T23:19:05.401Z,96960.31
2022-09-18T23:21:33.328Z,96953.44
2022-09-18T23:24:04.887Z,96956.69
2022-09-18T23:26:35.772Z,96960.78
2022-09-18T23:29:05.864Z,96944.38
2022-09-18T23:31:35.667Z,96946.19
2022-09-18T23:34:05.101Z,96950.16
2022-09-18T23:36:34.868Z,96948.03
2022-09-18T23:39:07.756Z,96954.59
2022-09-18T23:41:34.565Z,96958.22
2022-09-18T23:44:02.627Z,96957.88
2022-09-18T23:46:29.538Z,96961.66
2022-09-18T23:48:56.074Z,96959.31
2022-09-18T23:51:24.582Z,96968.84
2022-09-18T23:53:51.642Z,96969.66
2022-09-18T23:56:18.572Z,96964.22
2022-09-18T23:58:45.336Z,96958.16
